Aviation Digital Data Service (ADDS)

Output produced by METARs form (2312 UTC 28 August 2014)
found at http://www.aviationweather.gov/adds/metars/
 
KILG 282251Z 33011KT 10SM CLR 24/11 A2999 RMK AO2 SLP156 T02390111
KILG 281735Z 2818/2918 33012G19KT P6SM SKC 
     FM282300 33008KT P6SM SKC 
     FM290600 36006KT P6SM SKC 
     FM291500 05005KT P6SM SKC